createdAt,value
2024-05-09T00:00:30.356Z,10.66
2024-05-09T00:01:22.906Z,10.57
2024-05-09T00:02:22.926Z,10.52
2024-05-09T00:03:22.782Z,10.51
2024-05-09T00:04:22.834Z,10.46
2024-05-09T00:05:22.880Z,10.46
2024-05-09T00:06:22.760Z,10.46
2024-05-09T00:07:22.772Z,10.43
2024-05-09T00:08:22.763Z,10.39
2024-05-09T00:09:22.727Z,10.34
2024-05-09T00:10:29.150Z,10.26
2024-05-09T00:11:22.876Z,10.24
2024-05-09T00:12:22.699Z,10.22
2024-05-09T00:13:22.651Z,10.22
2024-05-09T00:14:22.739Z,10.20
2024-05-09T00:15:22.638Z,10.18
2024-05-09T00:16:22.665Z,10.20
2024-05-09T00:17:22.692Z,10.20
2024-05-09T00:18:22.790Z,10.17
2024-05-09T00:19:22.811Z,10.14
2024-05-09T00:20:28.424Z,10.13
2024-05-09T00:21:22.587Z,10.10
2024-05-09T00:22:22.543Z,10.09
2024-05-09T00:23:22.585Z,10.11
2024-05-09T00:24:22.521Z,10.11
2024-05-09T00:25:22.496Z,10.11
2024-05-09T00:26:22.665Z,10.11
2024-05-09T00:27:22.481Z,10.10
2024-05-09T00:28:22.464Z,10.10
2024-05-09T00:29:22.508Z,10.09
2024-05-09T00:30:31.581Z,10.09
2024-05-09T00:31:22.479Z,10.10
2024-05-09T00:32:22.588Z,10.11
2024-05-09T00:33:22.603Z,10.10
2024-05-09T00:34:22.475Z,10.11
2024-05-09T00:35:22.484Z,10.11
2024-05-09T00:36:22.410Z,10.11
2024-05-09T00:37:22.372Z,10.09
2024-05-09T00:38:22.406Z,10.07
2024-05-09T00:39:22.341Z,10.06
2024-05-09T00:40:30.641Z,10.01
2024-05-09T00:41:22.384Z,9.93
2024-05-09T00:42:22.297Z,9.86
2024-05-09T00:43:22.284Z,9.78
2024-05-09T00:44:22.391Z,9.75
2024-05-09T00:45:22.275Z,9.68
2024-05-09T00:46:22.283Z,9.67
2024-05-09T00:47:22.401Z,9.63
2024-05-09T00:48:22.464Z,9.59
2024-05-09T00:49:22.319Z,9.56
2024-05-09T00:50:29.838Z,9.55
2024-05-09T00:51:22.253Z,9.53
2024-05-09T00:52:22.191Z,9.53
2024-05-09T00:53:22.216Z,9.56
2024-05-09T00:54:22.159Z,9.55
2024-05-09T00:55:22.169Z,9.53
2024-05-09T00:56:23.689Z,9.50
2024-05-09T00:57:22.135Z,9.48
2024-05-09T00:58:22.110Z,9.45
2024-05-09T00:59:22.152Z,9.44
2024-05-09T01:00:30.545Z,9.41
2024-05-09T01:01:22.156Z,9.41
2024-05-09T01:02:22.155Z,9.41
2024-05-09T01:03:22.407Z,9.40
2024-05-09T01:04:22.060Z,9.34
2024-05-09T01:05:22.087Z,9.34
2024-05-09T01:06:22.050Z,9.34
2024-05-09T01:07:22.034Z,9.32
2024-05-09T01:08:22.043Z,9.30
2024-05-09T01:09:22.010Z,9.23
2024-05-09T01:10:28.121Z,9.23
2024-05-09T01:11:22.065Z,9.22
2024-05-09T01:12:22.064Z,9.19
2024-05-09T01:13:21.955Z,9.17
2024-05-09T01:14:22.030Z,9.20
2024-05-09T01:15:21.937Z,9.20
2024-05-09T01:16:21.925Z,9.19
2024-05-09T01:17:22.037Z,9.19
2024-05-09T01:18:22.117Z,9.19
2024-05-09T01:19:22.059Z,9.17
2024-05-09T01:20:31.803Z,9.20
2024-05-09T01:21:21.924Z,9.19
2024-05-09T01:22:21.865Z,9.19
2024-05-09T01:23:21.848Z,9.19
2024-05-09T01:24:21.829Z,9.20
2024-05-09T01:25:21.813Z,9.19
2024-05-09T01:26:21.891Z,9.23
2024-05-09T01:27:21.807Z,9.23
2024-05-09T01:28:21.792Z,9.24
2024-05-09T01:29:21.809Z,9.26
2024-05-09T01:30:31.188Z,9.24
2024-05-09T01:31:21.750Z,9.23
2024-05-09T01:32:22.059Z,9.20
2024-05-09T01:33:21.892Z,9.22
2024-05-09T01:34:21.739Z,9.22
2024-05-09T01:35:21.781Z,9.20
2024-05-09T01:36:21.715Z,9.19
2024-05-09T01:37:21.697Z,9.19
2024-05-09T01:38:21.739Z,9.15
2024-05-09T01:39:21.652Z,9.13
2024-05-09T01:40:28.664Z,9.06
2024-05-09T01:41:21.651Z,9.03
2024-05-09T01:42:21.634Z,9.08
2024-05-09T01:43:21.612Z,9.04
2024-05-09T01:44:21.641Z,9.04
2024-05-09T01:45:21.607Z,9.00
2024-05-09T01:46:21.577Z,8.98
2024-05-09T01:47:22.807Z,8.97
2024-05-09T01:48:21.739Z,8.96
2024-05-09T01:49:21.940Z,8.93
2024-05-09T01:50:33.073Z,8.89
2024-05-09T01:51:21.586Z,8.86
2024-05-09T01:52:21.529Z,8.82
2024-05-09T01:53:21.504Z,8.80
2024-05-09T01:54:21.528Z,8.80
2024-05-09T01:55:21.462Z,8.75
2024-05-09T01:56:21.486Z,8.75
2024-05-09T01:57:21.464Z,8.76
2024-05-09T01:58:21.430Z,8.73
2024-05-09T01:59:21.576Z,8.70
2024-05-09T02:00:30.261Z,8.70
2024-05-09T02:01:21.456Z,8.64
2024-05-09T02:02:21.512Z,8.63
2024-05-09T02:03:21.578Z,8.61
2024-05-09T02:04:21.613Z,8.63
2024-05-09T02:05:21.467Z,8.63
2024-05-09T02:06:21.359Z,8.61
2024-05-09T02:07:21.387Z,8.58
2024-05-09T02:08:22.047Z,8.52
2024-05-09T02:09:21.288Z,8.43
2024-05-09T02:10:26.609Z,8.36
2024-05-09T02:11:21.424Z,8.32
2024-05-09T02:12:21.597Z,8.29
2024-05-09T02:13:21.282Z,8.27
2024-05-09T02:14:22.423Z,8.22
2024-05-09T02:15:21.227Z,8.20
2024-05-09T02:16:21.210Z,8.20
2024-05-09T02:17:21.329Z,8.20
2024-05-09T02:18:21.361Z,8.18
2024-05-09T02:19:21.334Z,8.14
2024-05-09T02:20:30.244Z,8.17
2024-05-09T02:21:21.268Z,8.17
2024-05-09T02:22:21.170Z,8.20
2024-05-09T02:23:21.195Z,8.20
2024-05-09T02:24:21.205Z,8.21
2024-05-09T02:25:21.137Z,8.21
2024-05-09T02:26:21.177Z,8.18
2024-05-09T02:27:21.084Z,8.20
2024-05-09T02:28:21.162Z,8.17
2024-05-09T02:29:21.288Z,8.14
2024-05-09T02:30:29.943Z,8.09
2024-05-09T02:31:21.167Z,8.07
2024-05-09T02:32:21.211Z,8.07
2024-05-09T02:33:21.556Z,8.07
2024-05-09T02:34:21.091Z,8.02
2024-05-09T02:35:21.043Z,7.99
2024-05-09T02:36:20.981Z,7.94
2024-05-09T02:37:20.965Z,7.89
2024-05-09T02:38:21.185Z,7.85
2024-05-09T02:39:20.990Z,7.84
2024-05-09T02:40:28.915Z,7.85
2024-05-09T02:41:21.049Z,7.85
2024-05-09T02:42:20.899Z,7.84
2024-05-09T02:43:20.888Z,7.84
2024-05-09T02:44:20.995Z,7.85
2024-05-09T02:45:20.874Z,7.82
2024-05-09T02:46:20.852Z,7.77
2024-05-09T02:47:20.991Z,7.76
2024-05-09T02:48:21.031Z,7.74
2024-05-09T02:49:20.920Z,7.74
2024-05-09T02:50:29.698Z,7.76
2024-05-09T02:51:20.810Z,7.77
2024-05-09T02:52:20.789Z,7.77
2024-05-09T02:53:20.804Z,7.77
2024-05-09T02:54:20.766Z,7.71
2024-05-09T02:55:20.789Z,7.71
2024-05-09T02:56:20.869Z,7.69
2024-05-09T02:57:20.742Z,7.63
2024-05-09T02:58:20.736Z,7.60
2024-05-09T02:59:20.740Z,7.57
2024-05-09T03:00:26.444Z,7.51
2024-05-09T03:01:20.707Z,7.48
2024-05-09T03:02:22.224Z,7.48
2024-05-09T03:03:20.990Z,7.45
2024-05-09T03:04:20.717Z,7.48
2024-05-09T03:05:20.700Z,7.47
2024-05-09T03:06:20.631Z,7.48
2024-05-09T03:07:20.628Z,7.45
2024-05-09T03:08:20.651Z,7.47
2024-05-09T03:09:20.761Z,7.44
2024-05-09T03:10:25.596Z,7.44
2024-05-09T03:11:20.621Z,7.42
2024-05-09T03:12:20.623Z,7.42
2024-05-09T03:13:21.065Z,7.42
2024-05-09T03:14:20.623Z,7.39
2024-05-09T03:15:21.432Z,7.36
2024-05-09T03:16:20.557Z,7.39
2024-05-09T03:17:20.680Z,7.39
2024-05-09T03:18:20.619Z,7.39
2024-05-09T03:19:20.593Z,7.41
2024-05-09T03:20:24.177Z,7.34
2024-05-09T03:21:20.495Z,7.36
2024-05-09T03:22:20.462Z,7.36
2024-05-09T03:23:20.493Z,7.34
2024-05-09T03:24:20.448Z,7.32
2024-05-09T03:25:20.417Z,7.27
2024-05-09T03:26:20.510Z,7.26
2024-05-09T03:27:20.403Z,7.23
2024-05-09T03:28:20.391Z,7.21
2024-05-09T03:29:20.406Z,7.23
2024-05-09T03:30:29.599Z,7.23
2024-05-09T03:31:20.405Z,7.26
2024-05-09T03:32:20.425Z,7.26
2024-05-09T03:33:21.116Z,7.29
2024-05-09T03:34:20.347Z,7.30
2024-05-09T03:35:20.339Z,7.32
2024-05-09T03:36:20.340Z,7.30
2024-05-09T03:37:20.282Z,7.30
2024-05-09T03:38:20.351Z,7.29
2024-05-09T03:39:20.241Z,7.26
2024-05-09T03:40:23.831Z,7.26
2024-05-09T03:41:20.320Z,7.24
2024-05-09T03:42:20.729Z,7.24
2024-05-09T03:43:20.302Z,7.21
2024-05-09T03:44:20.252Z,7.23
2024-05-09T03:45:20.182Z,7.23
2024-05-09T03:46:20.225Z,7.23
2024-05-09T03:47:20.356Z,7.23
2024-05-09T03:48:20.387Z,7.24
2024-05-09T03:49:20.841Z,7.21
2024-05-09T03:50:26.338Z,7.21
2024-05-09T03:51:20.165Z,7.15
2024-05-09T03:52:20.125Z,7.14
2024-05-09T03:53:21.310Z,7.16
2024-05-09T03:54:20.090Z,7.14
2024-05-09T03:55:20.062Z,7.15
2024-05-09T03:56:20.158Z,7.15
2024-05-09T03:57:20.055Z,7.15
2024-05-09T03:58:20.028Z,7.16
2024-05-09T03:59:20.052Z,7.21
2024-05-09T04:00:30.066Z,7.21
2024-05-09T04:01:20.074Z,7.21
2024-05-09T04:02:20.077Z,7.23
2024-05-09T04:03:20.352Z,7.26
2024-05-09T04:04:20.011Z,7.29
2024-05-09T04:05:20.043Z,7.32
2024-05-09T04:06:19.994Z,7.34
2024-05-09T04:07:19.938Z,7.34
2024-05-09T04:08:20.081Z,7.34
2024-05-09T04:09:19.906Z,7.36
2024-05-09T04:10:27.726Z,7.37
2024-05-09T04:11:20.028Z,7.36
2024-05-09T04:12:19.917Z,7.36
2024-05-09T04:13:19.878Z,7.33
2024-05-09T04:14:19.891Z,7.36
2024-05-09T04:15:19.837Z,7.41
2024-05-09T04:16:19.831Z,7.37
2024-05-09T04:17:19.908Z,7.41
2024-05-09T04:18:19.900Z,7.45
2024-05-09T04:19:20.000Z,7.47
2024-05-09T04:20:29.281Z,7.48
2024-05-09T04:21:19.786Z,7.51
2024-05-09T04:22:19.789Z,7.52
2024-05-09T04:23:19.783Z,7.57
2024-05-09T04:24:19.745Z,7.62
2024-05-09T04:25:19.720Z,7.66
2024-05-09T04:26:19.785Z,7.69
2024-05-09T04:27:19.727Z,7.70
2024-05-09T04:28:19.710Z,7.70
2024-05-09T04:29:21.169Z,7.70
2024-05-09T04:30:26.314Z,7.71
2024-05-09T04:31:19.660Z,7.71
2024-05-09T04:32:19.723Z,7.73
2024-05-09T04:33:19.924Z,7.74
2024-05-09T04:34:19.717Z,7.76
2024-05-09T04:35:19.690Z,7.81
2024-05-09T04:36:19.606Z,7.85
2024-05-09T04:37:19.614Z,7.86
2024-05-09T04:38:19.630Z,7.91
2024-05-09T04:39:19.567Z,7.95
2024-05-09T04:40:28.139Z,7.96
2024-05-09T04:41:19.575Z,8.00
2024-05-09T04:42:19.558Z,8.03
2024-05-09T04:43:19.735Z,8.06
2024-05-09T04:44:19.577Z,8.10
2024-05-09T04:45:19.490Z,8.13
2024-05-09T04:46:19.512Z,8.17
2024-05-09T04:47:19.652Z,8.17
2024-05-09T04:48:19.679Z,8.21
2024-05-09T04:49:20.215Z,8.22
2024-05-09T04:50:29.059Z,8.27
2024-05-09T04:51:19.433Z,8.28
2024-05-09T04:52:19.994Z,8.28
2024-05-09T04:53:19.492Z,8.36
2024-05-09T04:54:26.245Z,8.39
2024-05-09T04:55:19.397Z,8.42
2024-05-09T04:56:19.455Z,8.45
2024-05-09T04:57:19.358Z,8.47
2024-05-09T04:58:19.348Z,8.50
2024-05-09T04:59:19.420Z,8.50
2024-05-09T05:00:28.135Z,8.55
2024-05-09T05:01:19.334Z,8.60
2024-05-09T05:02:19.394Z,8.61
2024-05-09T05:03:19.534Z,8.65
2024-05-09T05:04:19.408Z,8.68
2024-05-09T05:05:19.306Z,8.67
2024-05-09T05:06:19.258Z,8.71
2024-05-09T05:07:19.249Z,8.73
2024-05-09T05:08:19.710Z,8.76
2024-05-09T05:09:19.247Z,8.79
2024-05-09T05:10:25.445Z,8.83
2024-05-09T05:11:19.329Z,8.88
2024-05-09T05:12:19.399Z,8.91
2024-05-09T05:13:20.294Z,8.94
2024-05-09T05:14:19.240Z,8.97
2024-05-09T05:15:19.171Z,9.00
2024-05-09T05:16:19.129Z,9.01
2024-05-09T05:17:19.241Z,9.06
2024-05-09T05:18:19.546Z,9.10
2024-05-09T05:19:19.251Z,9.12
2024-05-09T05:20:27.359Z,9.17
2024-05-09T05:21:19.390Z,9.19
2024-05-09T05:22:19.077Z,9.22
2024-05-09T05:23:19.228Z,9.26
2024-05-09T05:24:19.079Z,9.30
2024-05-09T05:25:19.035Z,9.32
2024-05-09T05:26:19.159Z,9.35
2024-05-09T05:27:19.002Z,9.38
2024-05-09T05:28:19.007Z,9.42
2024-05-09T05:29:20.936Z,9.45
2024-05-09T05:30:24.985Z,9.50
2024-05-09T05:31:19.017Z,9.56
2024-05-09T05:32:19.073Z,9.63
2024-05-09T05:33:19.658Z,9.67
2024-05-09T05:34:18.953Z,9.71
2024-05-09T05:35:19.006Z,9.75
2024-05-09T05:36:18.914Z,9.80
2024-05-09T05:37:18.891Z,9.86
2024-05-09T05:38:20.046Z,9.88
2024-05-09T05:39:18.893Z,9.91
2024-05-09T05:40:28.051Z,9.91
2024-05-09T05:41:18.928Z,9.95
2024-05-09T05:42:18.855Z,9.99
2024-05-09T05:43:18.830Z,10.06
2024-05-09T05:44:18.910Z,10.10
2024-05-09T05:45:18.839Z,10.07
2024-05-09T05:46:18.789Z,10.17
2024-05-09T05:47:18.845Z,10.34
2024-05-09T05:48:19.283Z,10.52
2024-05-09T05:49:18.882Z,10.62
2024-05-09T05:50:27.308Z,10.68
2024-05-09T05:51:18.896Z,10.73
2024-05-09T05:52:18.722Z,10.75
2024-05-09T05:53:18.774Z,10.81
2024-05-09T05:54:18.726Z,10.81
2024-05-09T05:55:18.693Z,10.80
2024-05-09T05:56:18.725Z,10.75
2024-05-09T05:57:18.662Z,10.72
2024-05-09T05:58:18.654Z,10.76
2024-05-09T05:59:18.686Z,10.83
2024-05-09T06:00:28.993Z,10.88
2024-05-09T06:01:18.681Z,10.94
2024-05-09T06:02:18.745Z,10.99
2024-05-09T06:03:18.626Z,11.05
2024-05-09T06:04:18.669Z,11.12
2024-05-09T06:05:18.649Z,11.19
2024-05-09T06:06:18.576Z,11.23
2024-05-09T06:07:18.550Z,11.26
2024-05-09T06:08:18.575Z,11.28
2024-05-09T06:09:18.526Z,11.35
2024-05-09T06:10:25.206Z,11.42
2024-05-09T06:11:18.610Z,11.45
2024-05-09T06:12:18.638Z,11.53
2024-05-09T06:13:18.493Z,11.59
2024-05-09T06:14:18.533Z,11.63
2024-05-09T06:15:18.493Z,11.70
2024-05-09T06:16:18.477Z,11.75
2024-05-09T06:17:18.559Z,11.81
2024-05-09T06:18:18.761Z,11.85
2024-05-09T06:19:18.604Z,11.90
2024-05-09T06:20:23.918Z,12.00
2024-05-09T06:21:18.528Z,11.97
2024-05-09T06:22:18.372Z,12.03
2024-05-09T06:23:18.498Z,12.05
2024-05-09T06:24:18.352Z,12.05
2024-05-09T06:25:18.348Z,12.11
2024-05-09T06:26:18.427Z,12.18
2024-05-09T06:27:18.330Z,12.25
2024-05-09T06:28:18.334Z,12.30
2024-05-09T06:29:18.344Z,12.37
2024-05-09T06:30:25.454Z,12.43
2024-05-09T06:31:18.319Z,12.46
2024-05-09T06:32:18.341Z,12.49
2024-05-09T06:33:18.490Z,12.54
2024-05-09T06:34:18.468Z,12.59
2024-05-09T06:35:18.288Z,12.69
2024-05-09T06:36:18.239Z,12.74
2024-05-09T06:37:18.209Z,12.85
2024-05-09T06:38:18.253Z,12.92
2024-05-09T06:39:18.213Z,12.99
2024-05-09T06:40:25.409Z,13.09
2024-05-09T06:41:18.210Z,13.13
2024-05-09T06:42:18.174Z,13.13
2024-05-09T06:43:19.505Z,13.14
2024-05-09T06:44:18.235Z,13.13
2024-05-09T06:45:18.107Z,13.21
2024-05-09T06:46:18.096Z,13.25
2024-05-09T06:47:18.176Z,13.35
2024-05-09T06:48:18.412Z,13.43
2024-05-09T06:49:18.238Z,13.48
2024-05-09T06:50:23.769Z,13.55
2024-05-09T06:51:18.101Z,13.63
2024-05-09T06:52:18.054Z,13.69
2024-05-09T06:53:18.112Z,13.76
2024-05-09T06:54:18.021Z,13.83
2024-05-09T06:55:18.022Z,13.83
2024-05-09T06:56:18.055Z,13.86
2024-05-09T06:57:17.995Z,13.90
2024-05-09T06:58:18.002Z,13.94
2024-05-09T06:59:17.976Z,14.02
2024-05-09T07:00:26.822Z,14.08
2024-05-09T07:01:18.040Z,14.12
2024-05-09T07:02:18.018Z,14.17
2024-05-09T07:03:19.279Z,14.21
2024-05-09T07:04:18.098Z,14.23
2024-05-09T07:05:17.966Z,14.17
2024-05-09T07:06:17.938Z,14.16
2024-05-09T07:07:17.878Z,14.09
2024-05-09T07:08:17.999Z,14.06
2024-05-09T07:09:17.841Z,14.08
2024-05-09T07:10:25.412Z,14.13
2024-05-09T07:11:17.953Z,14.23
2024-05-09T07:12:18.022Z,14.35
2024-05-09T07:13:17.958Z,14.46
2024-05-09T07:14:17.816Z,14.54
2024-05-09T07:15:17.796Z,14.63
2024-05-09T07:16:17.754Z,14.69
2024-05-09T07:17:17.841Z,14.64
2024-05-09T07:18:18.948Z,14.56
2024-05-09T07:19:17.871Z,14.57
2024-05-09T07:20:23.677Z,14.46
2024-05-09T07:21:17.806Z,14.44
2024-05-09T07:22:17.727Z,14.56
2024-05-09T07:23:17.854Z,14.67
2024-05-09T07:24:17.654Z,14.72
2024-05-09T07:25:17.673Z,14.80
2024-05-09T07:26:17.861Z,14.90
2024-05-09T07:27:17.630Z,15.03
2024-05-09T07:28:17.797Z,15.16
2024-05-09T07:29:17.666Z,15.34
2024-05-09T07:30:23.532Z,15.51
2024-05-09T07:31:17.600Z,15.67
2024-05-09T07:32:17.730Z,15.76
2024-05-09T07:33:17.990Z,15.81
2024-05-09T07:34:17.753Z,15.89
2024-05-09T07:35:17.591Z,15.98
2024-05-09T07:36:17.519Z,16.07
2024-05-09T07:37:17.510Z,16.17
2024-05-09T07:38:17.582Z,16.37
2024-05-09T07:39:17.541Z,16.57
2024-05-09T07:40:27.596Z,16.75
2024-05-09T07:41:17.519Z,16.91
2024-05-09T07:42:17.439Z,17.07
2024-05-09T07:43:17.452Z,17.17
2024-05-09T07:44:17.561Z,17.46
2024-05-09T07:47:14.244Z,17.80
2024-05-09T07:50:34.243Z,17.68
2024-05-09T07:53:32.461Z,17.57
2024-05-09T07:53:49.460Z,17.30
2024-05-09T07:54:00.509Z,17.25
2024-05-09T07:54:56.310Z,17.14
2024-05-09T07:55:56.639Z,17.00
2024-05-09T07:56:56.185Z,16.96
2024-05-09T07:57:55.983Z,16.87
2024-05-09T07:58:56.470Z,16.84
2024-05-09T07:59:55.904Z,16.80
2024-05-09T08:00:56.057Z,16.82
2024-05-09T08:01:56.069Z,16.78
2024-05-09T08:02:55.992Z,16.80
2024-05-09T08:03:56.139Z,16.82
2024-05-09T08:04:55.954Z,16.85
2024-05-09T08:05:55.869Z,16.88
2024-05-09T08:06:55.878Z,16.91
2024-05-09T08:07:55.832Z,16.88
2024-05-09T08:08:56.765Z,16.88
2024-05-09T08:09:55.817Z,16.88
2024-05-09T08:10:55.868Z,16.81
2024-05-09T08:11:55.886Z,16.81
2024-05-09T08:12:55.796Z,16.82
2024-05-09T08:13:55.778Z,16.81
2024-05-09T08:14:55.740Z,16.78
2024-05-09T08:15:55.789Z,16.78
2024-05-09T08:16:55.789Z,16.80
2024-05-09T08:17:56.014Z,16.77
2024-05-09T08:18:55.795Z,16.75
2024-05-09T08:19:55.727Z,16.65
2024-05-09T08:20:57.633Z,16.62
2024-05-09T08:21:55.725Z,16.62
2024-05-09T08:22:55.641Z,16.60
2024-05-09T08:23:55.662Z,16.62
2024-05-09T08:24:55.752Z,16.69
2024-05-09T08:25:55.662Z,16.73
2024-05-09T08:26:55.605Z,16.75
2024-05-09T08:27:55.677Z,16.75
2024-05-09T08:28:55.577Z,16.80
2024-05-09T08:29:55.659Z,16.81
2024-05-09T08:30:55.752Z,16.82
2024-05-09T08:31:55.630Z,16.87
2024-05-09T08:32:55.714Z,16.88
2024-05-09T08:33:55.671Z,16.84
2024-05-09T08:34:55.665Z,16.85
2024-05-09T08:35:55.526Z,16.84
2024-05-09T08:36:57.546Z,16.82
2024-05-09T08:37:55.636Z,16.84
2024-05-09T08:38:55.486Z,16.88
2024-05-09T08:39:55.658Z,16.91
2024-05-09T08:40:55.548Z,16.92
2024-05-09T08:41:55.433Z,16.98
2024-05-09T08:42:55.500Z,17.00
2024-05-09T08:43:55.401Z,17.05
2024-05-09T08:44:55.415Z,17.07
2024-05-09T08:45:55.448Z,17.07
2024-05-09T08:46:55.408Z,17.09
2024-05-09T08:47:55.634Z,17.10
2024-05-09T08:48:55.580Z,17.12
2024-05-09T08:49:55.402Z,17.12
2024-05-09T08:50:55.427Z,17.12
2024-05-09T08:51:55.369Z,17.10
2024-05-09T08:52:55.306Z,17.09
2024-05-09T08:53:55.327Z,17.07
2024-05-09T08:54:55.366Z,17.09
2024-05-09T08:55:55.318Z,17.09
2024-05-09T08:56:55.292Z,17.10
2024-05-09T08:57:55.286Z,17.14
2024-05-09T08:58:55.251Z,17.15
2024-05-09T08:59:55.230Z,17.14
2024-05-09T09:00:55.364Z,17.17
2024-05-09T09:01:55.433Z,17.20
2024-05-09T09:02:55.288Z,17.25
2024-05-09T09:03:55.410Z,17.30
2024-05-09T09:04:55.266Z,17.38
2024-05-09T09:05:55.180Z,17.39
2024-05-09T09:06:57.732Z,17.43
2024-05-09T09:07:55.162Z,17.45
2024-05-09T09:08:55.156Z,17.47
2024-05-09T09:09:55.175Z,17.51
2024-05-09T09:10:55.146Z,17.47
2024-05-09T09:11:55.205Z,17.53
2024-05-09T09:12:55.114Z,17.54
2024-05-09T09:13:55.164Z,17.60
2024-05-09T09:14:55.066Z,17.66
2024-05-09T09:15:55.115Z,17.71
2024-05-09T09:16:55.073Z,17.70
2024-05-09T09:17:55.096Z,17.47
2024-05-09T09:18:55.178Z,17.12
2024-05-09T09:19:55.117Z,16.90
2024-05-09T09:20:55.248Z,16.78
2024-05-09T09:21:55.026Z,16.87
2024-05-09T09:22:54.979Z,17.02
2024-05-09T09:23:54.955Z,17.10
2024-05-09T09:24:54.988Z,17.22
2024-05-09T09:25:54.939Z,17.35
2024-05-09T09:26:54.982Z,17.42
2024-05-09T09:27:55.144Z,17.49
2024-05-09T09:28:54.915Z,17.57
2024-05-09T09:29:54.898Z,17.68
2024-05-09T09:30:54.927Z,17.77
2024-05-09T09:31:54.926Z,17.84
2024-05-09T09:32:54.997Z,17.86
2024-05-09T09:33:55.141Z,17.92
2024-05-09T09:34:54.932Z,17.79
2024-05-09T09:35:54.830Z,17.68
2024-05-09T09:36:54.841Z,17.70
2024-05-09T09:37:54.892Z,17.76
2024-05-09T09:38:54.798Z,17.77
2024-05-09T09:39:54.798Z,17.79
2024-05-09T09:40:54.823Z,17.81
2024-05-09T09:41:54.785Z,17.83
2024-05-09T09:42:54.844Z,17.68
2024-05-09T09:43:54.757Z,17.57
2024-05-09T09:45:03.743Z,17.30
2024-05-09T09:45:54.791Z,17.21
2024-05-09T09:46:54.788Z,17.25
2024-05-09T09:47:54.820Z,17.35
2024-05-09T09:48:54.780Z,17.38
2024-05-09T09:49:54.751Z,17.45
2024-05-09T09:50:54.656Z,17.55
2024-05-09T09:51:54.719Z,17.70
2024-05-09T09:52:54.637Z,17.83
2024-05-09T09:53:54.690Z,17.96
2024-05-09T09:54:54.899Z,18.11
2024-05-09T09:55:54.645Z,18.21
2024-05-09T09:56:54.628Z,18.28
2024-05-09T09:57:54.635Z,18.38
2024-05-09T09:58:54.568Z,18.41
2024-05-09T09:59:54.562Z,18.36
2024-05-09T10:00:54.744Z,18.31
2024-05-09T10:01:54.619Z,18.35
2024-05-09T10:02:54.566Z,18.41
2024-05-09T10:03:54.646Z,18.42
2024-05-09T10:04:54.613Z,18.44
2024-05-09T10:05:54.606Z,18.47
2024-05-09T10:06:54.539Z,18.50
2024-05-09T10:07:54.467Z,18.49
2024-05-09T10:08:54.506Z,18.50
2024-05-09T10:09:54.479Z,18.51
2024-05-09T10:10:54.599Z,18.57
2024-05-09T10:11:59.839Z,18.60
2024-05-09T10:12:55.270Z,18.56
2024-05-09T10:13:54.422Z,18.50
2024-05-09T10:14:54.415Z,18.49
2024-05-09T10:15:54.802Z,18.47
2024-05-09T10:16:54.357Z,18.38
2024-05-09T10:17:54.584Z,18.28
2024-05-09T10:18:54.615Z,18.29
2024-05-09T10:19:54.333Z,18.38
2024-05-09T10:20:54.346Z,18.41
2024-05-09T10:21:54.366Z,18.46
2024-05-09T10:22:54.299Z,18.51
2024-05-09T10:23:54.286Z,18.57
2024-05-09T10:24:54.309Z,18.64
2024-05-09T10:25:54.265Z,18.69
2024-05-09T10:26:54.245Z,18.72
2024-05-09T10:27:54.386Z,18.78
2024-05-09T10:28:54.224Z,18.84
2024-05-09T10:29:54.225Z,18.93
2024-05-09T10:30:54.220Z,18.87
2024-05-09T10:31:54.262Z,18.84
2024-05-09T10:32:54.282Z,18.91
2024-05-09T10:33:54.366Z,19.05
2024-05-09T10:34:54.211Z,19.12
2024-05-09T10:35:54.147Z,19.20
2024-05-09T10:36:54.231Z,19.27
2024-05-09T10:37:54.122Z,19.39
2024-05-09T10:38:54.113Z,19.45
2024-05-09T10:39:54.223Z,19.49
2024-05-09T10:40:54.082Z,19.53
2024-05-09T10:41:54.080Z,19.50
2024-05-09T10:42:54.206Z,19.53
2024-05-09T10:43:54.059Z,19.58
2024-05-09T10:44:54.044Z,19.72
2024-05-09T10:45:54.114Z,19.92
2024-05-09T10:46:54.075Z,20.19
2024-05-09T10:47:54.137Z,20.48
2024-05-09T10:48:54.088Z,20.87
2024-05-09T10:49:54.057Z,21.11
2024-05-09T10:50:53.958Z,20.68
2024-05-09T10:51:54.049Z,20.10
2024-05-09T10:52:53.938Z,19.75
2024-05-09T10:53:53.940Z,19.40
2024-05-09T10:54:54.008Z,19.20
2024-05-09T10:55:53.913Z,19.21
2024-05-09T10:56:53.963Z,19.10
2024-05-09T10:57:54.031Z,19.13
2024-05-09T10:58:53.865Z,19.27
2024-05-09T10:59:53.911Z,19.32
2024-05-09T11:00:53.967Z,19.39
2024-05-09T11:01:53.923Z,19.47
2024-05-09T11:02:53.860Z,19.53
2024-05-09T11:03:54.022Z,19.64
2024-05-09T11:04:54.075Z,19.75
2024-05-09T11:05:53.875Z,19.85
2024-05-09T11:06:54.727Z,19.72
2024-05-09T11:07:53.769Z,19.75
2024-05-09T11:08:53.777Z,19.79
2024-05-09T11:09:53.850Z,19.80
2024-05-09T11:10:53.844Z,19.86
2024-05-09T11:11:53.762Z,19.79
2024-05-09T11:12:53.824Z,19.79
2024-05-09T11:13:53.692Z,19.70
2024-05-09T11:14:53.730Z,19.78
2024-05-09T11:15:53.724Z,19.89
2024-05-09T11:16:53.705Z,19.95
2024-05-09T11:17:53.773Z,19.98
2024-05-09T11:18:53.731Z,20.07
2024-05-09T11:19:53.707Z,20.17
2024-05-09T11:20:53.636Z,20.31
2024-05-09T11:21:53.651Z,20.42
2024-05-09T11:22:53.600Z,20.46
2024-05-09T11:23:53.612Z,20.48
2024-05-09T11:24:53.636Z,20.48
2024-05-09T11:25:53.593Z,20.48
2024-05-09T11:26:53.558Z,20.50
2024-05-09T11:27:53.590Z,20.54
2024-05-09T11:28:53.555Z,20.53
2024-05-09T11:29:53.521Z,20.48
2024-05-09T11:30:53.578Z,20.30
2024-05-09T11:31:53.534Z,20.00
2024-05-09T11:32:53.633Z,19.89
2024-05-09T11:33:53.654Z,19.92
2024-05-09T11:34:53.468Z,19.97
2024-05-09T11:35:53.494Z,20.10
2024-05-09T11:36:53.501Z,20.20
2024-05-09T11:37:53.459Z,20.33
2024-05-09T11:38:53.395Z,20.44
2024-05-09T11:39:53.586Z,20.56
2024-05-09T11:40:53.570Z,20.46
2024-05-09T11:41:53.394Z,20.38
2024-05-09T11:42:53.695Z,20.33
2024-05-09T11:43:53.414Z,20.30
2024-05-09T11:44:53.339Z,20.19
2024-05-09T11:45:53.404Z,20.13
2024-05-09T11:46:53.374Z,19.94
2024-05-09T11:47:53.494Z,19.87
2024-05-09T11:48:53.583Z,19.79
2024-05-09T11:49:53.395Z,19.60
2024-05-09T11:50:53.306Z,19.50
2024-05-09T11:51:53.412Z,19.42
2024-05-09T11:52:53.264Z,19.45
2024-05-09T11:53:53.255Z,19.39
2024-05-09T11:54:53.288Z,19.32
2024-05-09T11:55:53.287Z,19.38
2024-05-09T11:56:53.220Z,19.50
2024-05-09T11:57:53.383Z,19.55
2024-05-09T11:58:53.287Z,19.65
2024-05-09T11:59:53.195Z,19.86
2024-05-09T12:00:53.383Z,20.07
2024-05-09T12:01:53.366Z,20.26
2024-05-09T12:02:53.183Z,20.53
2024-05-09T12:03:53.348Z,20.75
2024-05-09T12:04:53.223Z,20.94
2024-05-09T12:05:53.158Z,21.09
2024-05-09T12:06:53.174Z,21.18
2024-05-09T12:07:53.080Z,21.31
2024-05-09T12:08:53.086Z,21.45
2024-05-09T12:09:53.104Z,21.56
2024-05-09T12:10:53.509Z,21.74
2024-05-09T12:11:53.112Z,21.86
2024-05-09T12:12:53.075Z,22.09
2024-05-09T12:13:53.008Z,22.21
2024-05-09T12:14:53.031Z,22.29
2024-05-09T12:15:53.063Z,22.30
2024-05-09T12:16:53.026Z,22.27
2024-05-09T12:17:53.210Z,22.08
2024-05-09T12:18:53.144Z,22.04
2024-05-09T12:19:52.996Z,22.12
2024-05-09T12:20:52.934Z,22.21
2024-05-09T12:21:52.961Z,22.23
2024-05-09T12:22:52.969Z,22.33
2024-05-09T12:23:52.914Z,22.45
2024-05-09T12:24:52.929Z,22.45
2024-05-09T12:25:52.891Z,22.39
2024-05-09T12:26:53.003Z,22.27
2024-05-09T12:27:52.926Z,22.30
2024-05-09T12:28:52.853Z,22.42
2024-05-09T12:29:52.840Z,22.54
2024-05-09T12:30:52.935Z,22.67
2024-05-09T12:31:52.837Z,22.78
2024-05-09T12:32:53.104Z,22.85
2024-05-09T12:33:52.863Z,22.85
2024-05-09T12:34:52.762Z,22.85
2024-05-09T12:35:52.769Z,22.86
2024-05-09T12:36:52.780Z,22.82
2024-05-09T12:37:52.746Z,22.81
2024-05-09T12:38:52.737Z,22.75
2024-05-09T12:39:52.755Z,22.75
2024-05-09T12:40:52.976Z,22.78
2024-05-09T12:41:52.703Z,22.82
2024-05-09T12:42:52.764Z,22.86
2024-05-09T12:43:52.676Z,22.81
2024-05-09T12:44:52.651Z,22.63
2024-05-09T12:45:52.788Z,22.20
2024-05-09T12:46:52.667Z,21.86
2024-05-09T12:47:52.752Z,21.83
2024-05-09T12:48:52.902Z,21.71
2024-05-09T12:49:52.730Z,21.55
2024-05-09T12:50:52.658Z,21.38
2024-05-09T12:51:52.655Z,21.36
2024-05-09T12:52:52.583Z,21.42
2024-05-09T12:53:52.610Z,21.52
2024-05-09T12:54:52.626Z,21.64
2024-05-09T12:55:56.985Z,21.73
2024-05-09T12:56:52.535Z,21.81
2024-05-09T12:57:52.645Z,21.85
2024-05-09T12:58:52.526Z,21.70
2024-05-09T12:59:52.486Z,21.55
2024-05-09T13:00:53.020Z,21.51
2024-05-09T13:01:52.544Z,21.28
2024-05-09T13:02:52.571Z,21.26
2024-05-09T13:03:52.548Z,21.34
2024-05-09T13:04:52.477Z,21.40
2024-05-09T13:05:52.537Z,21.49
2024-05-09T13:06:52.437Z,21.59